Time;durP1;ratioP1;P1;durP2;ratioP2;P2;SDS_P1;SDS_P2;PMS_P1;PMS_P2;Temp;Humidity;BMP_temperature;BMP_pressure;BME280_temperature;BME280_humidity;BME280_pressure;Samples;Min_cycle;Max_cycle;Signal;HPM_P1;HPM_P2
2023/01/19 00:02:18;;;;;;;14.18;6.93;;;2.10;99.90;;;;;;5073689;28;20059;-82
2023/01/19 00:04:44;;;;;;;;;;;2.10;99.90;;;;;;5072769;28;20498;-83
2023/01/19 00:07:10;;;;;;;13.05;5.90;;;2.20;99.90;;;;;;5071564;28;19927;-83
2023/01/19 00:09:37;;;;;;;12.55;6.03;;;2.20;99.90;;;;;;5073432;28;20063;-83
2023/01/19 00:12:03;;;;;;;14.00;5.57;;;2.10;99.90;;;;;;5072388;28;20123;-82
2023/01/19 00:14:30;;;;;;;12.32;5.82;;;2.10;99.90;;;;;;5073791;28;20048;-84
2023/01/19 00:16:55;;;;;;;14.15;6.28;;;2.10;99.90;;;;;;5073545;28;20041;-82
2023/01/19 00:19:21;;;;;;;10.48;5.63;;;2.10;99.90;;;;;;5073312;28;20047;-82
2023/01/19 00:21:47;;;;;;;12.15;5.45;;;2.10;99.90;;;;;;5072479;28;20045;-82
2023/01/19 00:24:13;;;;;;;12.88;5.90;;;2.30;99.90;;;;;;5072812;28;20040;-82
2023/01/19 00:26:41;;;;;;;12.13;6.15;;;2.10;99.90;;;;;;5073313;28;20140;-82
2023/01/19 00:29:11;;;;;;;9.90;5.05;;;2.40;99.90;;;;;;5071562;28;20045;-83
2023/01/19 00:31:37;;;;;;;10.27;4.82;;;2.00;99.90;;;;;;5073305;28;20586;-83
2023/01/19 00:34:03;;;;;;;10.43;5.57;;;2.00;99.90;;;;;;5072925;28;20076;-83
2023/01/19 00:36:29;;;;;;;12.45;5.65;;;2.00;99.90;;;;;;5072962;28;20123;-82
2023/01/19 00:38:55;;;;;;;12.32;5.50;;;2.40;99.90;;;;;;5072073;28;20132;-85
2023/01/19 00:42:38;;;;;;;8.80;4.85;;;2.10;99.90;;;;;;5071319;28;20045;-83
2023/01/19 00:44:07;;;;;;;12.02;4.60;;;2.40;99.90;;;;;;5071874;28;20052;-83
2023/01/19 00:46:33;;;;;;;7.95;4.10;;;1.90;99.90;;;;;;5072642;28;20040;-82
2023/01/19 00:48:59;;;;;;;9.02;4.25;;;1.90;99.90;;;;;;5072813;28;20049;-82
2023/01/19 00:51:24;;;;;;;11.48;4.68;;;1.90;99.90;;;;;;5071307;28;20470;-83
2023/01/19 00:53:50;;;;;;;7.63;4.28;;;1.80;99.90;;;;;;5072335;28;20048;-83
2023/01/19 00:56:16;;;;;;;7.40;3.75;;;1.80;99.90;;;;;;5071981;28;20041;-82
2023/01/19 00:58:43;;;;;;;7.30;3.75;;;1.80;99.90;;;;;;5071886;28;20051;-83
2023/01/19 01:01:09;;;;;;;7.28;3.95;;;1.70;99.90;;;;;;5072341;28;20055;-82
2023/01/19 01:03:35;;;;;;;7.72;3.92;;;1.80;99.90;;;;;;5072608;28;20135;-82
2023/01/19 01:06:02;;;;;;;8.55;4.30;;;1.80;99.90;;;;;;5071192;28;20171;-86
2023/01/19 01:08:29;;;;;;;8.98;4.82;;;1.80;99.90;;;;;;5072555;28;20566;-82
2023/01/19 01:10:55;;;;;;;11.85;6.25;;;1.80;99.90;;;;;;5072224;28;20130;-82
2023/01/19 01:13:21;;;;;;;10.38;5.68;;;1.80;99.90;;;;;;5072025;28;20496;-82
2023/01/19 01:15:51;;;;;;;11.23;6.15;;;1.80;99.90;;;;;;5072579;28;20044;-83
2023/01/19 01:18:17;;;;;;;13.52;6.63;;;1.70;99.90;;;;;;5070901;28;20470;-83
2023/01/19 01:20:43;;;;;;;11.32;6.55;;;1.70;99.90;;;;;;5072141;28;20044;-84
2023/01/19 01:23:09;;;;;;;12.70;7.45;;;1.70;99.90;;;;;;5071984;28;20044;-83
2023/01/19 01:25:36;;;;;;;13.18;7.45;;;1.60;99.90;;;;;;5070861;28;20052;-83
2023/01/19 01:28:05;;;;;;;13.10;6.82;;;1.60;99.90;;;;;;5072156;28;20094;-87
2023/01/19 01:30:33;;;;;;;14.38;7.75;;;1.60;99.90;;;;;;5071755;28;20421;-82
2023/01/19 01:32:58;;;;;;;16.63;8.05;;;1.60;99.90;;;;;;5071993;28;20050;-83
2023/01/19 01:35:24;;;;;;;16.52;8.02;;;1.60;99.90;;;;;;5070579;28;20118;-84
2023/01/19 01:37:49;;;;;;;13.93;7.80;;;1.50;99.90;;;;;;5071831;28;20040;-83
2023/01/19 01:40:17;;;;;;;15.15;8.40;;;1.50;99.90;;;;;;5071032;28;20049;-83
2023/01/19 01:42:44;;;;;;;15.48;8.02;;;1.50;99.90;;;;;;5071023;28;20131;-83
2023/01/19 01:45:24;;;;;;;15.07;7.97;;;1.50;99.90;;;;;;5071658;28;20088;-82
2023/01/19 01:47:51;;;;;;;17.55;9.48;;;1.50;99.90;;;;;;5070589;28;20385;-82
2023/01/19 01:50:21;;;;;;;15.75;7.45;;;1.50;99.90;;;;;;5070577;28;20113;-82
2023/01/19 01:53:08;;;;;;;19.17;8.65;;;1.50;99.90;;;;;;5071806;28;20051;-82
2023/01/19 01:55:47;;;;;;;16.35;8.10;;;1.60;99.90;;;;;;5071458;28;20083;-84
2023/01/19 01:58:15;;;;;;;16.00;8.38;;;1.60;99.90;;;;;;5071428;28;20120;-83
2023/01/19 02:03:27;;;;;;;16.45;8.25;;;1.80;99.90;;;;;;5070393;28;20575;-83
2023/01/19 02:05:59;;;;;;;16.27;8.23;;;1.60;99.90;;;;;;5071671;28;20049;-85
2023/01/19 02:14:17;;;;;;;17.58;8.80;;;1.60;99.90;;;;;;5070394;28;20067;-82
2023/01/19 02:16:43;;;;;;;16.35;8.52;;;1.70;99.90;;;;;;5070558;28;20139;-83
2023/01/19 02:19:12;;;;;;;;;;;1.60;99.90;;;;;;5070454;28;20055;-83
2023/01/19 02:21:56;;;;;;;19.00;9.07;;;1.60;99.90;;;;;;5070453;28;19924;-83
2023/01/19 02:24:23;;;;;;;18.77;8.85;;;1.60;99.90;;;;;;5069935;28;20059;-82
2023/01/19 02:26:49;;;;;;;16.17;8.43;;;2.10;99.90;;;;;;5071369;28;20040;-83
2023/01/19 02:29:18;;;;;;;18.65;8.82;;;1.70;99.90;;;;;;5071789;28;20068;-83
2023/01/19 02:31:45;;;;;;;16.25;8.02;;;1.70;99.90;;;;;;5075472;28;20118;-82
2023/01/19 02:34:16;;;;;;;17.60;8.88;;;1.70;99.90;;;;;;5074174;28;20135;-83
2023/01/19 02:36:49;;;;;;;17.85;8.45;;;1.70;99.90;;;;;;5074104;28;20557;-83
2023/01/19 02:39:18;;;;;;;19.02;8.38;;;1.80;99.90;;;;;;5074791;28;20049;-82
2023/01/19 02:41:53;;;;;;;16.75;8.25;;;2.30;99.90;;;;;;5075140;28;20102;-82
2023/01/19 02:44:21;;;;;;;21.40;8.52;;;1.80;99.90;;;;;;5074166;28;20048;-82
2023/01/19 02:46:47;;;;;;;19.13;9.25;;;1.80;99.90;;;;;;5073971;28;20087;-83
2023/01/19 02:49:12;;;;;;;17.55;8.98;;;1.80;99.90;;;;;;5073797;28;20462;-82
2023/01/19 02:51:41;;;;;;;18.95;8.85;;;1.80;99.90;;;;;;5073418;28;20051;-83
2023/01/19 02:54:28;;;;;;;17.55;9.50;;;1.80;99.90;;;;;;5073315;28;20379;-83
2023/01/19 02:57:02;;;;;;;19.88;9.35;;;1.80;99.90;;;;;;5074860;28;20440;-84
2023/01/19 02:59:38;;;;;;;20.80;9.65;;;1.80;99.90;;;;;;5073827;28;20052;-82
2023/01/19 03:02:19;;;;;;;20.65;9.60;;;2.40;99.90;;;;;;5074851;28;20045;-83
2023/01/19 03:04:50;;;;;;;18.38;10.38;;;1.80;99.90;;;;;;5073764;28;20048;-82
2023/01/19 03:07:36;;;;;;;20.10;9.85;;;1.90;99.90;;;;;;5074251;28;20037;-82
2023/01/19 03:10:14;;;;;;;21.77;10.35;;;1.90;99.90;;;;;;5072715;28;20063;-82
2023/01/19 03:13:09;;;;;;;21.73;9.38;;;1.90;99.90;;;;;;5074757;28;20051;-82
2023/01/19 03:15:46;;;;;;;19.33;9.60;;;1.90;99.90;;;;;;5074469;28;20055;-83
2023/01/19 03:18:16;;;;;;;19.50;10.02;;;1.90;99.90;;;;;;5074390;28;20051;-86
2023/01/19 03:20:44;;;;;;;22.58;10.30;;;2.20;99.90;;;;;;5074686;28;20045;-82
2023/01/19 03:23:12;;;;;;;21.20;9.85;;;1.90;99.90;;;;;;5056861;28;20478;-82
2023/01/19 03:25:43;;;;;;;21.77;9.90;;;1.90;99.90;;;;;;5039887;28;20194;-82
2023/01/19 03:28:10;;;;;;;22.42;10.07;;;1.90;99.90;;;;;;5073345;28;20079;-82
2023/01/19 03:30:45;;;;;;;20.98;10.10;;;1.90;99.90;;;;;;5074303;28;20058;-82
2023/01/19 03:33:16;;;;;;;20.27;9.98;;;2.50;99.90;;;;;;5073446;28;20131;-82
2023/01/19 03:35:48;;;;;;;21.70;10.13;;;1.90;99.90;;;;;;5073508;28;20056;-83
2023/01/19 03:38:23;;;;;;;21.77;10.63;;;1.90;99.90;;;;;;5073990;28;20127;-85
2023/01/19 03:40:53;;;;;;;21.30;10.50;;;1.90;99.90;;;;;;5072840;28;20051;-82
2023/01/19 03:43:21;;;;;;;20.65;10.13;;;1.90;99.90;;;;;;5073932;28;20062;-82
2023/01/19 03:45:47;;;;;;;17.55;9.55;;;1.90;99.90;;;;;;5074253;28;20048;-82
2023/01/19 03:48:13;;;;;;;21.55;9.75;;;1.90;99.90;;;;;;5072913;28;20095;-85
2023/01/19 03:50:39;;;;;;;21.00;9.80;;;1.80;99.90;;;;;;5056159;28;20080;-83
2023/01/19 03:53:11;;;;;;;16.27;8.50;;;1.90;99.90;;;;;;5073503;28;20086;-84
2023/01/19 03:55:41;;;;;;;20.50;9.45;;;1.80;99.90;;;;;;5072337;28;20055;-83
2023/01/19 03:58:06;;;;;;;18.10;9.18;;;1.90;99.90;;;;;;5072989;28;20080;-83
2023/01/19 04:00:35;;;;;;;18.25;8.60;;;2.10;99.90;;;;;;5073676;28;20080;-82
2023/01/19 04:03:02;;;;;;;15.25;8.52;;;2.30;99.90;;;;;;5072541;28;20052;-82
2023/01/19 04:05:28;;;;;;;16.65;8.43;;;2.20;99.90;;;;;;5073509;28;20214;-82
2023/01/19 04:07:54;;;;;;;16.92;7.60;;;1.80;99.90;;;;;;5073581;28;20481;-83
2023/01/19 04:10:22;;;;;;;17.80;8.88;;;1.80;99.90;;;;;;5073063;28;20060;-82
2023/01/19 04:12:48;;;;;;;15.07;7.53;;;2.00;99.90;;;;;;5072751;28;20048;-82
2023/01/19 04:15:14;;;;;;;16.35;8.10;;;1.80;99.90;;;;;;5072819;28;20439;-83
2023/01/19 04:17:40;;;;;;;14.88;6.90;;;1.80;99.90;;;;;;5073331;28;20044;-82
2023/01/19 04:20:07;;;;;;;16.60;7.93;;;1.80;99.90;;;;;;5072776;28;20123;-82
2023/01/19 04:22:34;;;;;;;13.45;6.50;;;1.80;99.90;;;;;;5072372;28;20566;-83
2023/01/19 04:25:00;;;;;;;14.77;6.80;;;1.80;99.90;;;;;;5072148;28;20426;-83
2023/01/19 04:27:25;;;;;;;12.77;7.32;;;1.70;99.90;;;;;;5072729;28;20041;-82
2023/01/19 04:29:51;;;;;;;14.95;7.38;;;1.70;99.90;;;;;;5073288;28;20057;-82
2023/01/19 04:32:17;;;;;;;15.95;6.38;;;1.70;99.90;;;;;;5071805;28;20056;-86
2023/01/19 04:34:43;;;;;;;12.73;6.80;;;1.70;99.90;;;;;;5072395;28;20051;-82
2023/01/19 04:37:09;;;;;;;11.80;6.43;;;1.60;99.90;;;;;;5072128;28;20052;-83
2023/01/19 04:39:35;;;;;;;12.30;6.20;;;1.60;99.90;;;;;;5072351;28;20049;-82
2023/01/19 04:42:00;;;;;;;10.77;6.05;;;1.60;99.90;;;;;;5073074;28;20561;-82
2023/01/19 04:44:27;;;;;;;10.90;5.35;;;1.60;99.90;;;;;;5072722;28;20052;-82
2023/01/19 04:46:53;;;;;;;12.07;5.50;;;2.10;99.90;;;;;;5071875;28;20127;-82
2023/01/19 04:49:19;;;;;;;;;;;1.60;99.90;;;;;;5073193;28;20044;-83
2023/01/19 04:51:45;;;;;;;10.73;4.97;;;2.20;99.90;;;;;;5071662;28;19970;-82
2023/01/19 04:54:10;;;;;;;12.85;5.70;;;1.60;99.90;;;;;;5071792;28;20052;-85
2023/01/19 04:56:37;;;;;;;10.23;5.15;;;1.60;99.90;;;;;;5072800;28;20051;-82
2023/01/19 04:59:02;;;;;;;11.73;5.47;;;1.60;99.90;;;;;;5071957;28;20052;-83
2023/01/19 05:01:28;;;;;;;10.68;5.72;;;1.60;99.90;;;;;;5072355;28;20407;-82
2023/01/19 05:03:57;;;;;;;11.40;6.07;;;1.70;99.90;;;;;;5071536;28;20048;-82
2023/01/19 05:06:22;;;;;;;15.13;6.75;;;1.50;99.90;;;;;;5071673;28;20509;-83
2023/01/19 05:08:48;;;;;;;15.85;6.95;;;1.40;99.90;;;;;;5072617;28;20060;-82
2023/01/19 05:11:14;;;;;;;15.93;7.35;;;1.40;99.90;;;;;;5072660;28;20048;-82
2023/01/19 05:13:39;;;;;;;12.60;6.43;;;1.40;99.90;;;;;;5072352;28;20679;-82
2023/01/19 05:16:05;;;;;;;13.15;6.75;;;1.40;99.90;;;;;;5072606;28;20071;-82
2023/01/19 05:18:34;;;;;;;;;;;1.40;99.90;;;;;;5071627;28;20080;-82
2023/01/19 05:21:02;;;;;;;18.88;6.53;;;1.40;99.90;;;;;;5072046;28;19927;-83
2023/01/19 05:23:29;;;;;;;16.85;7.05;;;1.60;99.90;;;;;;5072060;28;20055;-82
2023/01/19 05:25:55;;;;;;;16.02;7.75;;;1.50;99.90;;;;;;5071672;28;20054;-83
2023/01/19 05:28:21;;;;;;;15.20;6.88;;;1.90;99.90;;;;;;5054245;28;20470;-86
2023/01/19 05:30:48;;;;;;;17.25;7.53;;;1.60;99.90;;;;;;5071921;28;20122;-82
2023/01/19 05:33:14;;;;;;;14.70;6.38;;;1.60;99.90;;;;;;5070783;28;20047;-83
2023/01/19 05:35:40;;;;;;;18.00;7.70;;;1.70;99.90;;;;;;5070598;28;20040;-83
2023/01/19 05:38:06;;;;;;;;;;;1.70;99.90;;;;;;5072361;28;20048;-84
2023/01/19 05:40:32;;;;;;;16.27;6.53;;;1.70;99.90;;;;;;5070457;28;19920;-83
2023/01/19 05:42:59;;;;;;;15.38;5.63;;;1.80;99.90;;;;;;5070877;28;20474;-82
2023/01/19 05:45:27;;;;;;;14.75;6.82;;;1.80;99.90;;;;;;5070589;28;20141;-85
2023/01/19 05:47:55;;;;;;;14.75;6.10;;;1.90;99.90;;;;;;5071758;28;20051;-82
2023/01/19 05:50:21;;;;;;;14.02;6.03;;;1.90;99.90;;;;;;5071809;28;20040;-85
2023/01/19 05:52:47;;;;;;;15.52;6.00;;;2.00;99.90;;;;;;5071748;28;20103;-84
2023/01/19 05:55:13;;;;;;;20.95;6.88;;;2.00;99.90;;;;;;5071552;28;20056;-84
2023/01/19 05:57:39;;;;;;;17.02;6.22;;;2.10;99.90;;;;;;5071571;28;20044;-82
2023/01/19 06:00:06;;;;;;;19.00;6.63;;;2.10;99.90;;;;;;5070726;28;20079;-83
2023/01/19 06:02:31;;;;;;;14.20;5.55;;;2.10;99.90;;;;;;5069961;28;20132;-83
2023/01/19 06:04:57;;;;;;;14.98;5.43;;;2.20;99.90;;;;;;5071397;28;20127;-83
2023/01/19 06:07:23;;;;;;;11.50;4.38;;;2.20;99.90;;;;;;5069792;28;20041;-86
2023/01/19 06:09:48;;;;;;;13.32;4.50;;;2.20;99.90;;;;;;5071329;28;20052;-82
2023/01/19 06:12:14;;;;;;;16.77;3.40;;;2.30;99.90;;;;;;5071887;28;20059;-83
2023/01/19 06:14:40;;;;;;;6.95;2.58;;;2.80;99.90;;;;;;5071453;28;20041;-83
2023/01/19 06:17:06;;;;;;;10.40;3.13;;;2.40;99.90;;;;;;5071868;28;20044;-83
2023/01/19 06:19:33;;;;;;;9.63;2.72;;;2.40;99.90;;;;;;5071367;28;20121;-83
2023/01/19 06:21:59;;;;;;;7.10;2.30;;;2.50;99.90;;;;;;5071540;28;20131;-82
2023/01/19 06:24:25;;;;;;;12.25;2.30;;;2.50;99.90;;;;;;5071125;28;20091;-87
2023/01/19 06:26:50;;;;;;;6.50;2.63;;;2.50;99.90;;;;;;5071283;28;20588;-84
2023/01/19 06:29:17;;;;;;;6.03;2.42;;;2.70;99.90;;;;;;5071294;28;20060;-82
2023/01/19 06:31:42;;;;;;;;;;;2.70;99.90;;;;;;5071431;28;20128;-84
2023/01/19 06:34:08;;;;;;;13.18;2.30;;;2.50;99.90;;;;;;5070527;28;20016;-83
2023/01/19 06:36:34;;;;;;;11.77;2.47;;;2.50;99.90;;;;;;5070923;28;20452;-83
2023/01/19 06:39:04;;;;;;;5.00;1.67;;;2.80;99.90;;;;;;5071188;28;20520;-83
2023/01/19 06:41:30;;;;;;;5.30;1.80;;;2.40;99.90;;;;;;5071065;28;20045;-83
2023/01/19 06:43:56;;;;;;;5.45;1.65;;;2.80;99.90;;;;;;5071535;28;20059;-83
2023/01/19 06:46:22;;;;;;;6.38;1.67;;;2.40;99.90;;;;;;5070129;28;20124;-82
2023/01/19 06:48:48;;;;;;;2.83;1.70;;;2.60;99.90;;;;;;5071035;28;20052;-85
2023/01/19 06:51:13;;;;;;;10.80;2.33;;;2.40;99.90;;;;;;5069811;28;20048;-83
2023/01/19 06:53:39;;;;;;;4.53;1.25;;;2.40;99.90;;;;;;5071016;28;20136;-82
2023/01/19 06:56:06;;;;;;;4.28;1.38;;;2.30;99.90;;;;;;5069938;28;20052;-83
2023/01/19 06:58:33;;;;;;;5.25;1.25;;;2.30;99.90;;;;;;5069838;28;20056;-83
2023/01/19 07:01:06;;;;;;;11.02;1.35;;;2.20;99.90;;;;;;5071323;28;20110;-82
2023/01/19 07:03:35;;;;;;;4.22;1.15;;;2.10;99.90;;;;;;5070777;28;20052;-83
2023/01/19 07:06:01;;;;;;;2.42;1.08;;;2.40;99.90;;;;;;5070919;28;20044;-82
2023/01/19 07:08:28;;;;;;;3.45;1.10;;;2.10;99.90;;;;;;5071111;28;20557;-87
2023/01/19 07:11:03;;;;;;;2.35;1.08;;;2.00;99.90;;;;;;5069870;28;20049;-83
2023/01/19 07:13:29;;;;;;;7.07;1.23;;;2.00;99.90;;;;;;5070590;28;20053;-88
2023/01/19 07:15:55;;;;;;;6.55;1.27;;;2.00;99.90;;;;;;5073905;28;20048;-83
2023/01/19 07:18:20;;;;;;;1.27;1.08;;;2.00;99.90;;;;;;5074707;28;20132;-84
2023/01/19 07:20:48;;;;;;;3.80;1.30;;;1.90;99.90;;;;;;5074526;28;20170;-83
2023/01/19 07:23:14;;;;;;;4.80;1.08;;;1.90;99.90;;;;;;5074431;28;20040;-83
2023/01/19 07:25:43;;;;;;;4.95;1.05;;;2.00;99.90;;;;;;5073878;28;20053;-82
2023/01/19 07:28:10;;;;;;;4.13;1.15;;;2.00;99.90;;;;;;5074695;28;20054;-83
2023/01/19 07:30:35;;;;;;;8.65;1.23;;;2.10;99.90;;;;;;5072921;28;20206;-84
2023/01/19 07:33:01;;;;;;;4.93;1.15;;;2.20;99.90;;;;;;5073125;28;20123;-83
2023/01/19 07:35:28;;;;;;;1.73;1.02;;;2.20;99.90;;;;;;5074390;28;20056;-83
2023/01/19 07:37:54;;;;;;;7.35;0.98;;;2.30;99.90;;;;;;5073898;28;20079;-82
2023/01/19 07:40:20;;;;;;;9.20;1.30;;;2.30;99.90;;;;;;5039656;28;20106;-70
2023/01/19 07:42:47;;;;;;;10.98;1.58;;;2.40;99.90;;;;;;5074034;28;20045;-71
2023/01/19 07:45:15;;;;;;;2.13;0.70;;;3.10;99.90;;;;;;5074419;28;20490;-71
2023/01/19 07:47:43;;;;;;;6.25;1.23;;;2.70;99.90;;;;;;5073647;28;20083;-71
2023/01/19 07:50:10;;;;;;;1.98;0.98;;;3.10;99.90;;;;;;5074150;28;20088;-82
2023/01/19 07:52:35;;;;;;;3.65;1.40;;;3.00;99.90;;;;;;5073624;28;20052;-80
2023/01/19 07:55:01;;;;;;;4.38;1.52;;;3.00;99.90;;;;;;5073596;28;20044;-74
2023/01/19 07:57:27;;;;;;;7.55;1.15;;;2.90;99.90;;;;;;5073930;28;20086;-73
2023/01/19 07:59:53;;;;;;;5.32;1.00;;;3.10;99.90;;;;;;5073570;28;20045;-72
2023/01/19 08:02:18;;;;;;;6.20;1.25;;;3.30;99.90;;;;;;5073687;28;20135;-80
2023/01/19 08:04:46;;;;;;;12.52;1.77;;;3.20;99.90;;;;;;5072479;28;20048;-82
2023/01/19 08:07:12;;;;;;;6.80;0.98;;;3.20;99.90;;;;;;5073526;28;20080;-82
2023/01/19 08:09:38;;;;;;;1.90;0.88;;;3.10;99.90;;;;;;5072902;28;20087;-82
2023/01/19 08:12:04;;;;;;;4.45;1.23;;;3.40;99.90;;;;;;5073698;28;20078;-82
2023/01/19 08:14:29;;;;;;;8.13;2.15;;;2.90;99.90;;;;;;5072644;28;20044;-81
2023/01/19 08:16:59;;;;;;;7.03;1.20;;;3.10;99.90;;;;;;5073154;28;20052;-82
2023/01/19 08:19:25;;;;;;;12.05;1.30;;;2.80;99.90;;;;;;5073506;28;20123;-82
2023/01/19 08:21:50;;;;;;;5.85;1.30;;;2.90;99.90;;;;;;5072059;28;20057;-82
2023/01/19 08:24:20;;;;;;;7.43;1.45;;;2.90;99.90;;;;;;5073195;28;20047;-83
2023/01/19 08:26:46;;;;;;;5.15;1.45;;;2.90;99.90;;;;;;5072357;28;20044;-82
2023/01/19 08:29:12;;;;;;;6.45;1.23;;;3.40;99.90;;;;;;5072128;28;20075;-83
2023/01/19 08:31:38;;;;;;;3.33;1.90;;;2.80;99.90;;;;;;5072788;28;20059;-82
2023/01/19 08:34:04;;;;;;;;;;;2.80;99.90;;;;;;5072793;28;20055;-83
2023/01/19 08:36:29;;;;;;;13.15;2.38;;;2.80;99.90;;;;;;5072825;28;19920;-82
2023/01/19 08:38:55;;;;;;;7.63;1.35;;;2.80;99.90;;;;;;5072703;28;20120;-82
2023/01/19 08:41:21;;;;;;;18.23;1.73;;;2.70;99.90;;;;;;5072064;28;20040;-82
2023/01/19 08:43:47;;;;;;;8.55;1.45;;;2.70;99.90;;;;;;5072853;28;20489;-82
2023/01/19 08:46:19;;;;;;;8.10;1.25;;;2.70;99.90;;;;;;5071975;28;20052;-84
2023/01/19 08:48:46;;;;;;;23.70;2.13;;;3.20;99.90;;;;;;5071699;28;20056;-83
2023/01/19 08:51:14;;;;;;;5.15;1.45;;;3.00;99.90;;;;;;5071869;28;20047;-84
2023/01/19 08:53:41;;;;;;;7.95;2.30;;;2.80;99.90;;;;;;5072562;28;20568;-81
2023/01/19 08:56:11;;;;;;;7.07;1.30;;;2.80;99.90;;;;;;5072598;28;20044;-82
2023/01/19 08:58:41;;;;;;;9.32;1.80;;;2.80;99.90;;;;;;5072246;28;20431;-86
2023/01/19 09:01:08;;;;;;;12.85;2.13;;;3.50;99.90;;;;;;5072834;28;20055;-79
2023/01/19 09:03:34;;;;;;;15.32;1.83;;;2.90;99.90;;;;;;5072541;28;20052;-80
2023/01/19 09:06:01;;;;;;;6.15;1.65;;;2.90;99.90;;;;;;5071971;28;20046;-81
2023/01/19 09:08:27;;;;;;;10.13;1.38;;;3.00;99.90;;;;;;5072663;28;20418;-81
2023/01/19 09:10:53;;;;;;;6.90;1.40;;;3.00;99.90;;;;;;5071057;28;20045;-80
2023/01/19 09:13:19;;;;;;;6.57;1.77;;;3.00;99.90;;;;;;5072741;28;20137;-83
2023/01/19 09:15:45;;;;;;;11.57;2.03;;;3.10;99.90;;;;;;5071944;28;20131;-83
2023/01/19 09:18:17;;;;;;;15.93;1.92;;;3.20;99.90;;;;;;5071141;28;20166;-83
2023/01/19 09:20:45;;;;;;;9.40;1.73;;;3.30;99.90;;;;;;5071803;28;20045;-83
2023/01/19 09:23:18;;;;;;;8.82;1.58;;;3.30;99.90;;;;;;5071547;28;20040;-83
2023/01/19 09:25:45;;;;;;;6.88;1.80;;;3.40;99.90;;;;;;5071233;28;20048;-83
2023/01/19 09:28:13;;;;;;;9.18;1.50;;;3.40;99.90;;;;;;5071845;28;20048;-83
2023/01/19 09:30:40;;;;;;;6.05;1.13;;;3.50;99.90;;;;;;5070467;28;20056;-85
2023/01/19 09:33:09;;;;;;;8.23;1.38;;;3.50;99.90;;;;;;5070107;28;20057;-84
2023/01/19 09:35:37;;;;;;;12.48;1.77;;;3.50;99.90;;;;;;5071112;28;20114;-83
2023/01/19 09:38:03;;;;;;;7.25;1.35;;;3.50;99.90;;;;;;5069963;28;20044;-83
2023/01/19 09:40:29;;;;;;;;;;;3.50;99.90;;;;;;5070333;28;20052;-84
2023/01/19 09:42:58;;;;;;;16.60;2.15;;;3.80;99.90;;;;;;5070925;28;19927;-80
2023/01/19 09:45:56;;;;;;;9.73;1.42;;;3.50;99.90;;;;;;5069940;28;20428;-84
2023/01/19 09:48:45;;;;;;;17.65;2.95;;;3.40;99.90;;;;;;5066124;28;20067;-80
2023/01/19 09:51:24;;;;;;;5.25;1.45;;;3.30;99.90;;;;;;5070643;28;20084;-82
2023/01/19 09:53:56;;;;;;;3.60;1.08;;;3.30;99.90;;;;;;5071350;28;20058;-85
2023/01/19 09:56:22;;;;;;;7.63;1.30;;;3.40;99.90;;;;;;5070993;28;20165;-83
2023/01/19 09:58:49;;;;;;;11.15;1.65;;;3.40;99.90;;;;;;5070877;28;20060;-83
2023/01/19 10:01:33;;;;;;;7.78;1.63;;;3.40;99.90;;;;;;5070248;28;20076;-83
2023/01/19 10:04:25;;;;;;;4.07;1.08;;;3.40;99.90;;;;;;5070171;28;20045;-82
2023/01/19 10:06:57;;;;;;;11.60;2.60;;;3.40;99.90;;;;;;5069741;28;20041;-83
2023/01/19 10:09:56;;;;;;;6.82;1.40;;;3.40;99.90;;;;;;5069730;28;20052;-82
2023/01/19 10:12:33;;;;;;;13.77;1.60;;;3.90;99.90;;;;;;5054575;28;20113;-83
2023/01/19 10:15:40;;;;;;;11.90;1.20;;;3.60;99.90;;;;;;5070753;28;20063;-86
2023/01/19 10:18:21;;;;;;;7.53;1.70;;;3.60;99.90;;;;;;5070515;28;20044;-82
2023/01/19 10:20:58;;;;;;;6.13;1.58;;;3.70;99.90;;;;;;5070832;28;20397;-80
2023/01/19 10:23:46;;;;;;;7.28;1.10;;;3.80;99.90;;;;;;5070979;28;20087;-83
2023/01/19 10:26:17;;;;;;;;;;;3.90;99.90;;;;;;5070229;28;20048;-82
2023/01/19 10:28:46;;;;;;;6.25;1.13;;;4.00;99.90;;;;;;5070915;28;19975;-73
2023/01/19 10:31:14;;;;;;;10.13;1.40;;;4.10;99.90;;;;;;5070496;28;20090;-70
2023/01/19 10:33:40;;;;;;;8.88;1.40;;;4.30;99.90;;;;;;5071150;28;20044;-69
2023/01/19 10:36:36;;;;;;;4.53;1.13;;;4.40;99.90;;;;;;5069030;28;20047;-69
2023/01/19 10:39:06;;;;;;;12.77;1.25;;;4.50;99.90;;;;;;5061482;28;20060;-69
2023/01/19 10:41:41;;;;;;;9.15;1.52;;;4.70;99.90;;;;;;5071080;28;20076;-68
2023/01/19 10:44:09;;;;;;;8.38;1.63;;;4.90;99.90;;;;;;5070589;28;20497;-68
2023/01/19 10:46:46;;;;;;;6.30;1.40;;;5.00;99.90;;;;;;5070731;28;20047;-69
2023/01/19 10:49:34;;;;;;;6.25;1.13;;;5.10;99.90;;;;;;5071282;28;20052;-68
2023/01/19 10:52:01;;;;;;;3.70;1.23;;;5.40;99.90;;;;;;5074459;28;20548;-68
2023/01/19 10:54:30;;;;;;;3.97;1.52;;;5.50;99.90;;;;;;5073464;28;20088;-69
2023/01/19 10:57:03;;;;;;;7.53;2.15;;;5.60;99.90;;;;;;5073621;28;20080;-69
2023/01/19 10:59:45;;;;;;;3.97;0.98;;;5.80;99.90;;;;;;5074208;28;20048;-69
2023/01/19 11:02:27;;;;;;;7.32;1.52;;;6.00;99.90;;;;;;5073314;28;20067;-68
2023/01/19 11:04:57;;;;;;;8.50;1.42;;;6.30;99.90;;;;;;5073951;28;20518;-68
2023/01/19 11:07:29;;;;;;;6.90;1.25;;;7.00;99.90;;;;;;5074062;28;20055;-68
2023/01/19 11:10:21;;;;;;;12.65;1.83;;;7.70;99.90;;;;;;5073313;28;20045;-69
2023/01/19 11:13:00;;;;;;;5.20;1.70;;;8.40;99.90;;;;;;5070525;28;20533;-70
2023/01/19 11:15:31;;;;;;;14.95;1.83;;;8.70;99.90;;;;;;5074566;28;20127;-74
2023/01/19 11:17:57;;;;;;;8.07;1.58;;;9.00;99.90;;;;;;5072735;28;20048;-69
2023/01/19 11:20:25;;;;;;;;;;;9.30;99.90;;;;;;5074075;28;20048;-69
2023/01/19 11:23:06;;;;;;;8.35;1.58;;;9.60;99.90;;;;;;5073786;28;19925;-69
2023/01/19 11:25:34;;;;;;;12.50;1.63;;;9.90;99.90;;;;;;5073478;28;20091;-69
2023/01/19 11:28:01;;;;;;;4.28;1.30;;;10.10;99.90;;;;;;5073699;28;20047;-69
2023/01/19 11:30:27;;;;;;;12.07;1.77;;;10.30;99.90;;;;;;5072706;28;20078;-69
2023/01/19 11:32:55;;;;;;;6.00;1.38;;;10.50;99.90;;;;;;5073417;28;20116;-69
2023/01/19 11:35:39;;;;;;;9.20;1.20;;;10.50;99.90;;;;;;5074149;28;20063;-82
2023/01/19 11:38:06;;;;;;;9.02;1.60;;;10.70;99.90;;;;;;5072216;28;20528;-82
2023/01/19 11:40:34;;;;;;;5.03;1.67;;;10.70;99.90;;;;;;5071635;28;20053;-82
2023/01/19 11:43:00;;;;;;;6.28;1.33;;;10.70;99.90;;;;;;5071968;28;20056;-82
2023/01/19 11:45:26;;;;;;;10.55;1.80;;;10.70;99.90;;;;;;5072367;28;20052;-82
2023/01/19 11:47:51;;;;;;;8.30;1.52;;;10.80;99.90;;;;;;5071170;28;20040;-83
2023/01/19 11:50:33;;;;;;;8.45;1.40;;;10.90;99.90;;;;;;5073389;28;20500;-82
2023/01/19 11:53:05;;;;;;;4.63;1.02;;;11.10;99.90;;;;;;5072493;28;20048;-82
2023/01/19 11:55:47;;;;;;;3.83;1.08;;;11.50;99.90;;;;;;5072163;28;20112;-84
2023/01/19 11:58:17;;;;;;;5.78;1.30;;;11.80;99.90;;;;;;5072383;28;20113;-82
2023/01/19 12:01:10;;;;;;;5.65;1.17;;;11.80;99.90;;;;;;5072191;28;20099;-84
2023/01/19 12:03:44;;;;;;;5.15;1.75;;;11.60;99.90;;;;;;5072392;28;20059;-83
2023/01/19 12:06:19;;;;;;;9.23;1.33;;;12.00;99.90;;;;;;5071386;28;20185;-82
2023/01/19 12:08:52;;;;;;;5.75;1.30;;;12.40;99.90;;;;;;5071954;28;20481;-84
2023/01/19 12:11:46;;;;;;;4.03;1.15;;;12.60;99.90;;;;;;5071803;28;20125;-83
2023/01/19 12:14:33;;;;;;;10.73;1.42;;;13.10;97.80;;;;;;5062734;28;20055;-82
2023/01/19 12:17:04;;;;;;;6.78;2.05;;;13.80;94.00;;;;;;5071552;28;20048;-81
2023/01/19 12:19:52;;;;;;;5.90;1.13;;;14.30;99.90;;;;;;5073369;28;20044;-82
2023/01/19 12:22:19;;;;;;;5.53;0.85;;;14.40;89.10;;;;;;5072948;28;20051;-82
2023/01/19 12:25:15;;;;;;;4.65;1.10;;;14.60;84.20;;;;;;5072621;28;20119;-83
2023/01/19 12:27:45;;;;;;;4.00;1.10;;;14.80;84.80;;;;;;5073063;28;20052;-83
2023/01/19 12:30:23;;;;;;;2.17;0.77;;;15.00;97.90;;;;;;5070347;28;20053;-81
2023/01/19 12:32:50;;;;;;;4.05;0.90;;;15.50;75.60;;;;;;5072693;28;20103;-80
2023/01/19 12:35:53;;;;;;;3.65;1.00;;;15.70;90.70;;;;;;5072169;28;20049;-78
2023/01/19 12:38:46;;;;;;;3.95;1.08;;;15.50;68.60;;;;;;5071303;28;20098;-77
2023/01/19 12:41:23;;;;;;;4.07;1.17;;;14.70;64.70;;;;;;5071288;28;20478;-83
2023/01/19 12:44:15;;;;;;;5.70;0.95;;;14.50;79.20;;;;;;5072708;28;20629;-81
2023/01/19 12:46:41;;;;;;;7.80;1.35;;;14.00;64.70;;;;;;5072686;28;20470;-83
2023/01/19 12:49:27;;;;;;;3.30;0.73;;;12.80;76.10;;;;;;5071348;28;20063;-82
2023/01/19 12:52:12;;;;;;;5.35;1.20;;;11.00;71.20;;;;;;5072590;28;20044;-81
2023/01/19 12:54:59;;;;;;;3.60;1.25;;;9.30;88.90;;;;;;5072385;28;20135;-80
2023/01/19 12:57:50;;;;;;;9.13;1.40;;;8.30;99.90;;;;;;5071579;28;20060;-80
2023/01/19 13:00:22;;;;;;;6.20;0.73;;;7.40;99.90;;;;;;5072238;28;20052;-82
2023/01/19 13:02:48;;;;;;;6.95;1.15;;;6.80;99.90;;;;;;5072257;28;20044;-80
2023/01/19 13:05:20;;;;;;;2.92;1.25;;;6.50;99.90;;;;;;5071774;28;20577;-81
2023/01/19 13:08:00;;;;;;;4.05;0.95;;;6.20;99.90;;;;;;5070715;28;20416;-80
2023/01/19 13:11:08;;;;;;;7.85;1.20;;;6.10;99.90;;;;;;5070785;28;20048;-80
2023/01/19 13:13:36;;;;;;;4.55;1.05;;;5.90;99.90;;;;;;5071048;28;20131;-80
2023/01/19 13:16:17;;;;;;;4.25;0.85;;;6.00;99.90;;;;;;5070762;28;20044;-80
2023/01/19 13:18:44;;;;;;;6.80;0.88;;;5.90;99.90;;;;;;5071955;28;20046;-80